Time;durP1;ratioP1;P1;durP2;ratioP2;P2;SDS_P1;SDS_P2;PMS_P1;PMS_P2;Temp;Humidity;BMP_temperature;BMP_pressure;BME280_temperature;BME280_humidity;BME280_pressure;Samples;Min_cycle;Max_cycle;Signal;HPM_P1;HPM_P2
2023/08/01 00:00:08;;;;;;;14.45;3.67;;;;;;;;;;5058319;28;20062;-68
2023/08/01 00:02:34;;;;;;;9.40;3.78;;;;;;;;;;5070494;28;20036;-68
2023/08/01 00:05:00;;;;;;;10.98;3.20;;;;;;;;;;5057454;28;20033;-68
2023/08/01 00:07:29;;;;;;;10.80;3.97;;;;;;;;;;5057848;28;20028;-68
2023/08/01 00:09:55;;;;;;;12.65;3.50;;;;;;;;;;5058599;28;20468;-68
2023/08/01 00:12:22;;;;;;;8.57;2.83;;;;;;;;;;5044017;28;20480;-68
2023/08/01 00:14:48;;;;;;;8.93;3.95;;;;;;;;;;5055685;28;20810;-68
2023/08/01 00:17:14;;;;;;;9.68;3.22;;;;;;;;;;5059294;28;20463;-68
2023/08/01 00:19:40;;;;;;;10.10;3.35;;;;;;;;;;5056399;28;20427;-67
2023/08/01 00:22:06;;;;;;;10.00;3.28;;;;;;;;;;5057461;28;20394;-68
2023/08/01 00:24:32;;;;;;;7.97;2.78;;;;;;;;;;5048163;28;20039;-68
2023/08/01 00:26:58;;;;;;;10.48;3.60;;;;;;;;;;5057123;28;20029;-67
2023/08/01 00:29:24;;;;;;;17.00;3.63;;;;;;;;;;5056552;28;20020;-69
2023/08/01 00:31:50;;;;;;;6.95;2.70;;;;;;;;;;5053081;28;20035;-67
2023/08/01 00:34:16;;;;;;;9.45;3.00;;;;;;;;;;5061845;28;20048;-67
2023/08/01 00:36:42;;;;;;;9.50;3.38;;;;;;;;;;5056937;28;20263;-68
2023/08/01 00:39:09;;;;;;;6.38;2.90;;;;;;;;;;5058286;28;20444;-68
2023/08/01 00:41:35;;;;;;;10.48;3.17;;;;;;;;;;5057039;28;20134;-67
2023/08/01 00:44:01;;;;;;;10.73;4.03;;;;;;;;;;5060523;28;20066;-68
2023/08/01 00:46:28;;;;;;;6.90;2.90;;;;;;;;;;5061895;28;20136;-68
2023/08/01 00:48:57;;;;;;;15.07;4.28;;;;;;;;;;5071134;28;20025;-68
2023/08/01 00:51:23;;;;;;;5.90;2.72;;;;;;;;;;5071484;28;20043;-68
2023/08/01 00:53:50;;;;;;;7.25;3.10;;;;;;;;;;5053174;28;20028;-68
2023/08/01 00:56:16;;;;;;;8.68;3.20;;;;;;;;;;5056850;28;20127;-67
2023/08/01 00:58:42;;;;;;;14.07;3.83;;;;;;;;;;5053740;28;20566;-68
2023/08/01 01:01:08;;;;;;;12.30;3.63;;;;;;;;;;5062527;28;20043;-67
2023/08/01 01:03:34;;;;;;;11.48;3.35;;;;;;;;;;5059420;28;20029;-68
2023/08/01 01:06:17;;;;;;;8.70;3.22;;;;;;;;;;5064959;28;20029;-68
2023/08/01 01:08:44;;;;;;;17.08;3.65;;;;;;;;;;5070956;28;20021;-68
2023/08/01 01:11:10;;;;;;;11.50;3.42;;;;;;;;;;5060785;28;20036;-68
2023/08/01 01:13:36;;;;;;;10.13;3.95;;;;;;;;;;5064034;28;20170;-67
2023/08/01 01:16:02;;;;;;;11.35;3.35;;;;;;;;;;5058397;28;20033;-68
2023/08/01 01:18:29;;;;;;;7.38;3.95;;;;;;;;;;5065846;28;20510;-67
2023/08/01 01:20:55;;;;;;;6.75;2.95;;;;;;;;;;5057424;28;20037;-68
2023/08/01 01:23:22;;;;;;;12.68;4.07;;;;;;;;;;5056881;28;20479;-67
2023/08/01 01:25:49;;;;;;;9.60;3.22;;;;;;;;;;5059361;28;20082;-68
2023/08/01 01:28:15;;;;;;;8.90;3.92;;;;;;;;;;5063236;28;20025;-68
2023/08/01 01:30:42;;;;;;;8.43;3.38;;;;;;;;;;5051501;28;20036;-68
2023/08/01 01:33:09;;;;;;;8.82;4.53;;;;;;;;;;5060534;28;20028;-67
2023/08/01 01:35:35;;;;;;;8.18;2.80;;;;;;;;;;5061848;28;20056;-67
2023/08/01 01:38:03;;;;;;;11.43;4.40;;;;;;;;;;5063172;28;20083;-67
2023/08/01 01:40:32;;;;;;;11.88;3.20;;;;;;;;;;5061070;28;20043;-68
2023/08/01 01:42:59;;;;;;;10.15;3.03;;;;;;;;;;5066699;28;20051;-68
2023/08/01 01:45:25;;;;;;;11.48;3.95;;;;;;;;;;5058494;28;20116;-67
2023/08/01 01:47:51;;;;;;;7.45;3.05;;;;;;;;;;5068315;28;20565;-67
2023/08/01 01:50:18;;;;;;;9.20;3.85;;;;;;;;;;5053034;28;20028;-68
2023/08/01 01:52:44;;;;;;;11.30;3.30;;;;;;;;;;5066463;28;20021;-67
2023/08/01 01:55:10;;;;;;;16.45;4.30;;;;;;;;;;5067207;28;20020;-67
2023/08/01 01:57:37;;;;;;;7.18;2.85;;;;;;;;;;5050978;28;20219;-67
2023/08/01 02:00:03;;;;;;;10.13;2.75;;;;;;;;;;5057425;28;20736;-68
2023/08/01 02:02:30;;;;;;;9.75;3.20;;;;;;;;;;5055151;28;20506;-67
2023/08/01 02:04:56;;;;;;;9.57;3.28;;;;;;;;;;5067525;28;20024;-67
2023/08/01 02:07:22;;;;;;;11.88;2.85;;;;;;;;;;5053933;28;20076;-67
2023/08/01 02:09:48;;;;;;;7.57;3.10;;;;;;;;;;5050570;28;20151;-68
2023/08/01 02:12:14;;;;;;;7.32;2.95;;;;;;;;;;5055653;28;20133;-67
2023/08/01 02:14:41;;;;;;;7.47;2.85;;;;;;;;;;5061692;28;20035;-68
2023/08/01 02:17:07;;;;;;;14.70;3.65;;;;;;;;;;5055125;28;20108;-68
2023/08/01 02:19:36;;;;;;;5.88;3.35;;;;;;;;;;5065838;28;20061;-68
2023/08/01 02:22:02;;;;;;;10.73;3.72;;;;;;;;;;5049805;28;20067;-69
2023/08/01 02:24:29;;;;;;;5.45;2.55;;;;;;;;;;5054675;28;20091;-68
2023/08/01 02:26:55;;;;;;;7.80;3.28;;;;;;;;;;5054549;28;20029;-67
2023/08/01 02:29:21;;;;;;;9.55;3.03;;;;;;;;;;5056346;28;20032;-68
2023/08/01 02:31:47;;;;;;;8.85;3.78;;;;;;;;;;5059289;28;20023;-67
2023/08/01 02:34:13;;;;;;;8.85;2.83;;;;;;;;;;5057800;28;20045;-67
2023/08/01 02:36:40;;;;;;;7.53;2.70;;;;;;;;;;5055149;28;20033;-68
2023/08/01 02:39:07;;;;;;;4.97;2.60;;;;;;;;;;5070415;28;20060;-67
2023/08/01 02:41:33;;;;;;;7.18;3.60;;;;;;;;;;5061554;28;20100;-68
2023/08/01 02:43:59;;;;;;;10.23;2.97;;;;;;;;;;5052822;28;20032;-68
2023/08/01 02:46:27;;;;;;;6.63;3.22;;;;;;;;;;5060138;28;20044;-67
2023/08/01 02:48:53;;;;;;;8.63;2.90;;;;;;;;;;5057246;28;20416;-67
2023/08/01 02:51:20;;;;;;;6.07;2.60;;;;;;;;;;5054648;28;20028;-66
2023/08/01 02:53:46;;;;;;;9.98;3.67;;;;;;;;;;5051624;28;20032;-67
2023/08/01 02:56:12;;;;;;;10.32;3.38;;;;;;;;;;5062138;28;20548;-67
2023/08/01 02:58:38;;;;;;;10.70;3.10;;;;;;;;;;5048418;28;20085;-67
2023/08/01 03:01:10;;;;;;;5.82;3.42;;;;;;;;;;5060312;28;20055;-68
2023/08/01 03:03:37;;;;;;;7.45;2.47;;;;;;;;;;5061804;28;20082;-67
2023/08/01 03:06:03;;;;;;;8.25;3.10;;;;;;;;;;5054529;28;20036;-67
2023/08/01 03:08:35;;;;;;;6.55;2.75;;;;;;;;;;5063855;28;20480;-68
2023/08/01 03:11:02;;;;;;;6.70;2.90;;;;;;;;;;5066117;28;20430;-71
2023/08/01 03:13:28;;;;;;;7.57;2.95;;;;;;;;;;5062157;28;20032;-71
2023/08/01 03:15:54;;;;;;;10.13;3.47;;;;;;;;;;5061412;28;20028;-72
2023/08/01 03:18:20;;;;;;;5.70;2.70;;;;;;;;;;5063731;28;20552;-73
2023/08/01 03:20:46;;;;;;;6.00;2.72;;;;;;;;;;5058932;28;20029;-71
2023/08/01 03:23:12;;;;;;;6.13;3.17;;;;;;;;;;5054710;28;20563;-71
2023/08/01 03:25:38;;;;;;;8.77;3.08;;;;;;;;;;5065041;28;20057;-71
2023/08/01 03:28:05;;;;;;;6.97;3.25;;;;;;;;;;5057391;28;20547;-71
2023/08/01 03:30:32;;;;;;;8.57;4.10;;;;;;;;;;5057308;28;20715;-72
2023/08/01 03:32:58;;;;;;;7.18;2.90;;;;;;;;;;5070085;28;20025;-71
2023/08/01 03:35:24;;;;;;;8.57;3.00;;;;;;;;;;5058072;28;20460;-71
2023/08/01 03:37:50;;;;;;;7.90;3.25;;;;;;;;;;5057200;28;20031;-72
2023/08/01 03:40:16;;;;;;;7.28;2.90;;;;;;;;;;5066942;28;20024;-72
2023/08/01 03:42:43;;;;;;;8.15;2.72;;;;;;;;;;5055020;28;20111;-71
2023/08/01 03:45:10;;;;;;;7.63;2.90;;;;;;;;;;5051056;28;20021;-71
2023/08/01 03:47:36;;;;;;;7.50;2.80;;;;;;;;;;5059304;28;20058;-73
2023/08/01 03:50:02;;;;;;;8.77;2.90;;;;;;;;;;5060037;28;20055;-71
2023/08/01 03:52:29;;;;;;;7.93;2.80;;;;;;;;;;5057284;28;20473;-72
2023/08/01 03:54:55;;;;;;;7.72;2.78;;;;;;;;;;5051513;28;20111;-71
2023/08/01 03:57:22;;;;;;;8.13;2.90;;;;;;;;;;5059782;28;20039;-72
2023/08/01 03:59:48;;;;;;;9.30;3.00;;;;;;;;;;5057976;28;20544;-71
2023/08/01 04:02:14;;;;;;;8.48;3.60;;;;;;;;;;5059497;28;20032;-72
2023/08/01 04:04:40;;;;;;;7.88;3.15;;;;;;;;;;5062941;28;20473;-72
2023/08/01 04:07:06;;;;;;;9.48;2.85;;;;;;;;;;5061743;28;20438;-67
2023/08/01 04:09:32;;;;;;;9.30;2.70;;;;;;;;;;5055642;28;20484;-67
2023/08/01 04:11:58;;;;;;;6.88;2.95;;;;;;;;;;5063168;28;20355;-68
2023/08/01 04:14:24;;;;;;;7.40;2.72;;;;;;;;;;5057088;28;20032;-67
2023/08/01 04:16:50;;;;;;;12.02;3.53;;;;;;;;;;5061484;28;20024;-67
2023/08/01 04:19:16;;;;;;;5.15;2.60;;;;;;;;;;5073875;28;20070;-68
2023/08/01 04:21:43;;;;;;;7.40;3.00;;;;;;;;;;5056070;28;20025;-68
2023/08/01 04:24:09;;;;;;;5.78;2.60;;;;;;;;;;5063113;28;20187;-67
2023/08/01 04:26:36;;;;;;;4.68;2.63;;;;;;;;;;5051094;28;20447;-69
2023/08/01 04:29:02;;;;;;;5.78;2.75;;;;;;;;;;5055063;28;20107;-67
2023/08/01 04:31:29;;;;;;;6.65;2.25;;;;;;;;;;5059926;28;20058;-67
2023/08/01 04:33:55;;;;;;;7.43;3.28;;;;;;;;;;5057508;28;20041;-68
2023/08/01 04:36:21;;;;;;;9.27;2.78;;;;;;;;;;5064988;28;20029;-68
2023/08/01 04:38:47;;;;;;;6.53;3.03;;;;;;;;;;5055316;28;20036;-68
2023/08/01 04:41:13;;;;;;;8.68;2.65;;;;;;;;;;5070252;28;20419;-68
2023/08/01 04:43:40;;;;;;;5.28;2.42;;;;;;;;;;5062205;28;20032;-68
2023/08/01 04:46:06;;;;;;;7.72;2.60;;;;;;;;;;5063716;28;20056;-67
2023/08/01 04:48:32;;;;;;;20.60;3.38;;;;;;;;;;5065471;28;20074;-68
2023/08/01 04:50:58;;;;;;;4.93;2.70;;;;;;;;;;5058799;28;20024;-68
2023/08/01 04:53:24;;;;;;;14.15;3.67;;;;;;;;;;5067579;28;20032;-68
2023/08/01 04:55:51;;;;;;;10.10;3.03;;;;;;;;;;5057157;28;20041;-68
2023/08/01 04:58:17;;;;;;;6.40;2.72;;;;;;;;;;5062272;28;20035;-67
2023/08/01 05:00:43;;;;;;;7.63;3.35;;;;;;;;;;5052657;28;20036;-67
2023/08/01 05:03:09;;;;;;;8.20;2.90;;;;;;;;;;5062559;28;20074;-68
2023/08/01 05:05:35;;;;;;;5.07;2.70;;;;;;;;;;5053722;28;20468;-69
2023/08/01 05:08:01;;;;;;;7.63;3.20;;;;;;;;;;5062126;28;20031;-68
2023/08/01 05:10:27;;;;;;;10.52;3.03;;;;;;;;;;5058247;28;20135;-67
2023/08/01 05:12:54;;;;;;;6.18;2.70;;;;;;;;;;5062169;28;20447;-67
2023/08/01 05:15:20;;;;;;;5.40;2.55;;;;;;;;;;5055605;28;20052;-67
2023/08/01 05:17:46;;;;;;;10.43;3.13;;;;;;;;;;5059215;28;20095;-67
2023/08/01 05:20:12;;;;;;;8.02;2.80;;;;;;;;;;5064685;28;20025;-67
2023/08/01 05:22:38;;;;;;;6.70;2.80;;;;;;;;;;5079432;28;20025;-67
2023/08/01 05:25:04;;;;;;;4.30;2.53;;;;;;;;;;5063607;28;20039;-68
2023/08/01 05:27:31;;;;;;;10.63;2.90;;;;;;;;;;5058201;28;20063;-68
2023/08/01 05:29:57;;;;;;;8.35;2.83;;;;;;;;;;5057931;28;20036;-67
2023/08/01 05:32:23;;;;;;;6.07;2.95;;;;;;;;;;5071578;28;20036;-67
2023/08/01 05:34:49;;;;;;;4.90;2.88;;;;;;;;;;5055004;28;20641;-68
2023/08/01 05:37:15;;;;;;;7.65;3.88;;;;;;;;;;5068330;28;20078;-68
2023/08/01 05:39:41;;;;;;;7.53;3.70;;;;;;;;;;5059005;28;20039;-67
2023/08/01 05:42:10;;;;;;;6.60;2.83;;;;;;;;;;5061428;28;20419;-67
2023/08/01 05:44:36;;;;;;;5.03;3.20;;;;;;;;;;5055119;28;20033;-67
2023/08/01 05:47:02;;;;;;;6.85;3.30;;;;;;;;;;5055449;28;20120;-67
2023/08/01 05:49:29;;;;;;;9.07;3.63;;;;;;;;;;5062535;28;20029;-67
2023/08/01 05:51:55;;;;;;;5.07;2.13;;;;;;;;;;5057404;28;20504;-68
2023/08/01 05:54:22;;;;;;;7.57;3.20;;;;;;;;;;5058351;28;20036;-67
2023/08/01 05:56:48;;;;;;;6.85;2.63;;;;;;;;;;5051820;28;20036;-68
2023/08/01 05:59:14;;;;;;;7.55;3.15;;;;;;;;;;5063449;28;20036;-67
2023/08/01 06:01:40;;;;;;;7.03;2.55;;;;;;;;;;5058630;28;20033;-68
2023/08/01 06:04:07;;;;;;;8.57;2.67;;;;;;;;;;5060690;28;20028;-68
2023/08/01 06:06:33;;;;;;;6.85;2.63;;;;;;;;;;5058841;28;20017;-67
2023/08/01 06:09:03;;;;;;;6.07;2.90;;;;;;;;;;5057204;28;20029;-68
2023/08/01 06:11:29;;;;;;;6.05;2.70;;;;;;;;;;5070035;28;20025;-67
2023/08/01 06:13:55;;;;;;;13.13;2.90;;;;;;;;;;5056068;28;20059;-68
2023/08/01 06:16:21;;;;;;;8.68;2.80;;;;;;;;;;5058880;28;20108;-68
2023/08/01 06:18:47;;;;;;;5.05;2.70;;;;;;;;;;5055159;28;20029;-66
2023/08/01 06:21:13;;;;;;;6.30;2.55;;;;;;;;;;5047812;28;20025;-67
2023/08/01 06:23:39;;;;;;;6.75;2.45;;;;;;;;;;5045969;28;20064;-68
2023/08/01 06:26:05;;;;;;;8.70;2.30;;;;;;;;;;5048633;28;20146;-68
2023/08/01 06:28:31;;;;;;;7.40;2.72;;;;;;;;;;5062357;28;20090;-68
2023/08/01 06:30:58;;;;;;;8.25;2.72;;;;;;;;;;5050622;28;20024;-67
2023/08/01 06:33:24;;;;;;;5.13;2.70;;;;;;;;;;5055254;28;20029;-68
2023/08/01 06:35:50;;;;;;;6.15;2.55;;;;;;;;;;5055604;28;20079;-68
2023/08/01 06:38:16;;;;;;;4.90;2.47;;;;;;;;;;5058958;28;20057;-67
2023/08/01 06:40:42;;;;;;;5.38;2.42;;;;;;;;;;5054977;28;20040;-68
2023/08/01 06:43:08;;;;;;;3.30;2.03;;;;;;;;;;5058140;28;20048;-67
2023/08/01 06:45:36;;;;;;;11.23;3.17;;;;;;;;;;5056659;28;20374;-68
2023/08/01 06:48:02;;;;;;;9.07;2.85;;;;;;;;;;5056626;28;20063;-70
2023/08/01 06:50:28;;;;;;;7.82;3.05;;;;;;;;;;5057880;28;20029;-68
2023/08/01 06:52:54;;;;;;;8.27;3.47;;;;;;;;;;5061204;28;20020;-68
2023/08/01 06:55:20;;;;;;;5.45;3.13;;;;;;;;;;5053707;28;20117;-68
2023/08/01 06:57:46;;;;;;;4.07;2.90;;;;;;;;;;5058530;28;20396;-68
2023/08/01 07:00:13;;;;;;;4.85;3.03;;;;;;;;;;5055593;28;20078;-68
2023/08/01 07:02:39;;;;;;;8.88;4.10;;;;;;;;;;5053551;28;20120;-68
2023/08/01 07:05:05;;;;;;;11.25;4.65;;;;;;;;;;5054099;28;20033;-68
2023/08/01 07:07:31;;;;;;;5.57;2.83;;;;;;;;;;5061116;28;20036;-68
2023/08/01 07:09:57;;;;;;;4.50;2.30;;;;;;;;;;5058019;28;20025;-68
2023/08/01 07:12:23;;;;;;;5.85;2.28;;;;;;;;;;5054422;28;20025;-68
2023/08/01 07:14:49;;;;;;;7.03;3.28;;;;;;;;;;5052656;28;20035;-68
2023/08/01 07:17:15;;;;;;;7.28;2.67;;;;;;;;;;5056054;28;20546;-68
2023/08/01 07:19:41;;;;;;;6.57;2.38;;;;;;;;;;5063918;28;20032;-69
2023/08/01 07:22:07;;;;;;;4.70;2.47;;;;;;;;;;5052591;28;20052;-68
2023/08/01 07:24:34;;;;;;;5.18;3.30;;;;;;;;;;5063381;28;20520;-68
2023/08/01 07:27:00;;;;;;;8.60;2.88;;;;;;;;;;5054210;28;20094;-68
2023/08/01 07:29:26;;;;;;;6.60;4.53;;;;;;;;;;5054231;28;20048;-68
2023/08/01 07:31:52;;;;;;;7.78;3.92;;;;;;;;;;5056177;28;20122;-68
2023/08/01 07:34:18;;;;;;;4.82;3.38;;;;;;;;;;5052467;28;20048;-68
2023/08/01 07:36:46;;;;;;;4.43;3.28;;;;;;;;;;5051386;28;20468;-68
2023/08/01 07:39:12;;;;;;;6.22;3.33;;;;;;;;;;5055413;28;20102;-68
2023/08/01 07:41:38;;;;;;;3.95;3.00;;;;;;;;;;5053522;28;20032;-69
2023/08/01 07:44:04;;;;;;;8.40;2.72;;;;;;;;;;5051332;28;20852;-67
2023/08/01 07:46:31;;;;;;;3.75;2.60;;;;;;;;;;5053449;28;20467;-68
2023/08/01 07:48:59;;;;;;;6.22;2.20;;;;;;;;;;5058631;28;20104;-69
2023/08/01 07:51:25;;;;;;;6.38;2.15;;;;;;;;;;5056473;28;20491;-69
2023/08/01 07:53:52;;;;;;;4.95;2.35;;;;;;;;;;5060390;28;20368;-68
2023/08/01 07:56:18;;;;;;;2.95;2.00;;;;;;;;;;5055628;28;20579;-68
2023/08/01 07:58:44;;;;;;;4.40;2.10;;;;;;;;;;5054513;28;20633;-69
2023/08/01 08:01:10;;;;;;;4.60;2.15;;;;;;;;;;5048558;28;20033;-69
2023/08/01 08:03:36;;;;;;;4.80;2.15;;;;;;;;;;5053844;28;20508;-69
2023/08/01 08:06:03;;;;;;;4.68;2.03;;;;;;;;;;5055253;28;20104;-69
2023/08/01 08:08:31;;;;;;;4.68;2.22;;;;;;;;;;5057308;28;20025;-68
2023/08/01 08:10:58;;;;;;;4.90;1.95;;;;;;;;;;5052063;28;20086;-69
2023/08/01 08:13:25;;;;;;;3.67;2.20;;;;;;;;;;5054646;28;20036;-68
2023/08/01 08:15:51;;;;;;;3.97;2.58;;;;;;;;;;5058342;28;20020;-68
2023/08/01 08:18:18;;;;;;;4.25;2.30;;;;;;;;;;5056551;28;20028;-69
2023/08/01 08:20:45;;;;;;;5.07;2.40;;;;;;;;;;5053323;28;20029;-69
2023/08/01 08:23:13;;;;;;;3.13;2.13;;;;;;;;;;5062340;28;20033;-69
2023/08/01 08:25:40;;;;;;;3.83;2.00;;;;;;;;;;5057349;28;20111;-69
2023/08/01 08:28:06;;;;;;;4.95;2.60;;;;;;;;;;5062203;28;20028;-70
2023/08/01 08:30:32;;;;;;;4.88;2.20;;;;;;;;;;5049925;28;20028;-70
2023/08/01 08:33:03;;;;;;;7.07;2.30;;;;;;;;;;5046226;28;20086;-69
2023/08/01 08:35:30;;;;;;;3.88;2.53;;;;;;;;;;5056642;28;20782;-69
2023/08/01 08:37:56;;;;;;;2.30;2.05;;;;;;;;;;5057061;28;20059;-69
2023/08/01 08:40:22;;;;;;;3.90;2.15;;;;;;;;;;5052712;28;20481;-69
2023/08/01 08:42:49;;;;;;;6.80;2.85;;;;;;;;;;5059571;28;20088;-70
2023/08/01 08:45:19;;;;;;;4.55;2.10;;;;;;;;;;5049865;28;20391;-70
2023/08/01 08:47:45;;;;;;;3.97;2.65;;;;;;;;;;5055085;28;20028;-69
2023/08/01 08:50:12;;;;;;;4.97;2.20;;;;;;;;;;5054922;28;20040;-69
2023/08/01 08:52:38;;;;;;;3.17;2.03;;;;;;;;;;5061597;28;20102;-68
2023/08/01 08:55:05;;;;;;;3.50;2.15;;;;;;;;;;5068444;28;20437;-69
2023/08/01 08:57:31;;;;;;;5.60;2.50;;;;;;;;;;5060133;28;20064;-69
2023/08/01 08:59:57;;;;;;;3.15;2.13;;;;;;;;;;5069228;28;20035;-71
2023/08/01 09:02:24;;;;;;;3.50;2.17;;;;;;;;;;5061430;28;20093;-69
2023/08/01 09:04:50;;;;;;;2.20;1.95;;;;;;;;;;5064414;28;20381;-68
2023/08/01 09:07:17;;;;;;;2.88;1.98;;;;;;;;;;5056319;28;20032;-70
2023/08/01 09:09:44;;;;;;;3.35;1.85;;;;;;;;;;5056450;28;20046;-69
2023/08/01 09:12:10;;;;;;;6.65;1.95;;;;;;;;;;5057062;28;20771;-69
2023/08/01 09:14:36;;;;;;;2.92;1.67;;;;;;;;;;5057787;28;20028;-69
2023/08/01 09:17:07;;;;;;;3.58;2.08;;;;;;;;;;5058712;28;20108;-70
2023/08/01 09:19:33;;;;;;;4.63;2.65;;;;;;;;;;5066067;28;20021;-70
2023/08/01 09:21:59;;;;;;;6.22;1.98;;;;;;;;;;5066951;28;20025;-70
2023/08/01 09:24:25;;;;;;;2.22;1.83;;;;;;;;;;5068878;28;20034;-70
2023/08/01 09:26:51;;;;;;;3.58;2.90;;;;;;;;;;5063115;28;20452;-71
2023/08/01 09:29:18;;;;;;;3.35;1.67;;;;;;;;;;5055518;28;20091;-70
2023/08/01 09:31:44;;;;;;;1.83;1.67;;;;;;;;;;5057367;28;20088;-70
2023/08/01 09:34:19;;;;;;;2.38;1.70;;;;;;;;;;5059574;28;20056;-71
2023/08/01 09:36:45;;;;;;;2.85;1.83;;;;;;;;;;5053567;28;20029;-70
2023/08/01 09:39:16;;;;;;;3.83;1.70;;;;;;;;;;5059546;28;20045;-70
2023/08/01 09:41:42;;;;;;;1.90;1.63;;;;;;;;;;5057308;28;20033;-70
2023/08/01 09:44:12;;;;;;;3.25;1.92;;;;;;;;;;5058563;28;20020;-70
2023/08/01 09:46:38;;;;;;;3.38;1.80;;;;;;;;;;5067344;28;20480;-71
2023/08/01 09:49:09;;;;;;;4.70;1.85;;;;;;;;;;5058154;28;20021;-70
2023/08/01 09:51:46;;;;;;;4.18;1.80;;;;;;;;;;5054982;28;20846;-70
2023/08/01 09:54:13;;;;;;;2.45;1.67;;;;;;;;;;5061764;28;20966;-72
2023/08/01 09:56:39;;;;;;;2.45;2.00;;;;;;;;;;5062687;28;20074;-67
2023/08/01 09:59:05;;;;;;;3.38;2.00;;;;;;;;;;5064942;28;20575;-70
2023/08/01 10:01:32;;;;;;;3.63;2.08;;;;;;;;;;5057176;28;20108;-70
2023/08/01 10:03:59;;;;;;;3.40;1.90;;;;;;;;;;5065092;28;20036;-71
2023/08/01 10:06:29;;;;;;;2.75;1.45;;;;;;;;;;5083510;28;20355;-72
2023/08/01 10:08:55;;;;;;;3.65;1.58;;;;;;;;;;5074949;28;20021;-72
2023/08/01 10:11:22;;;;;;;2.63;1.70;;;;;;;;;;5058485;28;20540;-72
2023/08/01 10:13:48;;;;;;;2.38;1.95;;;;;;;;;;5073960;28;20021;-72
2023/08/01 10:16:15;;;;;;;2.50;1.60;;;;;;;;;;5063538;28;20020;-72
2023/08/01 10:18:41;;;;;;;2.15;1.73;;;;;;;;;;5068970;28;20024;-71
2023/08/01 10:21:09;;;;;;;3.17;1.73;;;;;;;;;;5055563;28;20021;-72
2023/08/01 10:23:35;;;;;;;1.85;1.60;;;;;;;;;;5062682;28;20029;-72
2023/08/01 10:26:03;;;;;;;3.42;1.58;;;;;;;;;;5058141;28;20128;-71
2023/08/01 10:28:36;;;;;;;1.50;1.40;;;;;;;;;;5061131;28;20096;-72
2023/08/01 10:31:12;;;;;;;2.35;1.95;;;;;;;;;;5067387;28;20449;-72
2023/08/01 10:33:42;;;;;;;2.33;1.45;;;;;;;;;;5075097;28;20560;-72
2023/08/01 10:36:24;;;;;;;3.00;1.50;;;;;;;;;;5081669;28;20110;-73
2023/08/01 10:38:54;;;;;;;1.60;1.50;;;;;;;;;;5064246;28;20025;-72
2023/08/01 10:41:21;;;;;;;1.77;1.67;;;;;;;;;;5062792;28;20029;-72
2023/08/01 10:43:47;;;;;;;2.00;1.58;;;;;;;;;;5060344;28;20021;-72
2023/08/01 10:46:14;;;;;;;1.70;1.42;;;;;;;;;;5070315;28;20376;-72
2023/08/01 10:48:54;;;;;;;2.53;1.45;;;;;;;;;;5066413;28;20024;-73
2023/08/01 10:51:20;;;;;;;1.55;1.30;;;;;;;;;;5059335;28;20389;-73
2023/08/01 10:53:47;;;;;;;3.25;1.70;;;;;;;;;;5078724;28;20098;-73
2023/08/01 10:56:20;;;;;;;1.92;1.80;;;;;;;;;;5064731;28;20047;-73
2023/08/01 10:58:47;;;;;;;1.50;1.40;;;;;;;;;;5058211;28;20533;-73
2023/08/01 11:01:13;;;;;;;2.20;1.50;;;;;;;;;;5062266;28;20400;-72
2023/08/01 11:03:41;;;;;;;1.55;1.45;;;;;;;;;;5061088;28;20029;-72
2023/08/01 11:06:07;;;;;;;2.50;1.70;;;;;;;;;;5072624;28;20043;-74
2023/08/01 11:08:38;;;;;;;2.97;1.40;;;;;;;;;;5061366;28;20033;-74
2023/08/01 11:11:14;;;;;;;2.63;1.60;;;;;;;;;;5058091;28;20021;-73
2023/08/01 11:13:40;;;;;;;2.42;1.60;;;;;;;;;;5065302;28;20531;-72
2023/08/01 11:16:06;;;;;;;1.80;1.70;;;;;;;;;;5057753;28;20039;-72
2023/08/01 11:18:45;;;;;;;1.85;1.50;;;;;;;;;;5061793;28;20033;-72
2023/08/01 11:21:11;;;;;;;1.52;1.42;;;;;;;;;;5062643;28;20040;-73
2023/08/01 11:23:37;;;;;;;1.65;1.55;;;;;;;;;;5063310;28;20032;-72
2023/08/01 11:26:08;;;;;;;1.52;1.42;;;;;;;;;;5054962;28;20056;-73
2023/08/01 11:28:35;;;;;;;1.90;1.67;;;;;;;;;;5054398;28;20512;-73
2023/08/01 11:31:02;;;;;;;1.63;1.45;;;;;;;;;;5060026;28;20487;-72
2023/08/01 11:33:29;;;;;;;1.70;1.30;;;;;;;;;;5058078;28;20078;-73
2023/08/01 11:35:58;;;;;;;1.85;1.38;;;;;;;;;;5065100;28;20364;-73
2023/08/01 11:38:26;;;;;;;1.73;1.60;;;;;;;;;;5059952;28;20025;-73
2023/08/01 11:40:52;;;;;;;1.98;1.40;;;;;;;;;;5053920;28;20539;-74
2023/08/01 11:43:18;;;;;;;2.05;1.70;;;;;;;;;;5059284;28;20020;-72
2023/08/01 11:45:54;;;;;;;1.98;1.77;;;;;;;;;;5053605;28;20025;-74
2023/08/01 11:48:23;;;;;;;2.28;1.30;;;;;;;;;;5062648;28;20112;-73
2023/08/01 11:50:50;;;;;;;2.13;1.50;;;;;;;;;;5088409;28;20035;-73
2023/08/01 11:53:22;;;;;;;2.83;1.45;;;;;;;;;;5061686;28;20111;-74
2023/08/01 11:55:49;;;;;;;2.20;1.33;;;;;;;;;;5085830;28;20097;-73
2023/08/01 11:58:15;;;;;;;1.70;1.60;;;;;;;;;;5055918;28;20369;-74
2023/08/01 12:00:42;;;;;;;1.83;1.50;;;;;;;;;;5058056;28;20123;-74
2023/08/01 12:03:15;;;;;;;2.95;1.60;;;;;;;;;;5062061;28;20028;-74
2023/08/01 12:05:41;;;;;;;2.60;1.50;;;;;;;;;;5053385;28;20028;-74
2023/08/01 12:08:11;;;;;;;1.23;1.13;;;;;;;;;;5058425;28;20100;-74
2023/08/01 12:10:38;;;;;;;3.13;1.70;;;;;;;;;;5059998;28;20025;-74
2023/08/01 12:13:04;;;;;;;1.50;1.40;;;;;;;;;;5057208;28;20376;-73
2023/08/01 12:15:30;;;;;;;1.55;1.45;;;;;;;;;;5051335;28;20036;-73
2023/08/01 12:17:57;;;;;;;1.52;1.42;;;;;;;;;;5051259;28;20111;-73
2023/08/01 12:20:23;;;;;;;2.88;1.35;;;;;;;;;;5056849;28;20076;-74
2023/08/01 12:22:49;;;;;;;2.67;1.70;;;;;;;;;;5055359;28;20549;-74
2023/08/01 12:25:15;;;;;;;1.45;1.35;;;;;;;;;;5050989;28;20102;-74
2023/08/01 12:27:41;;;;;;;1.42;1.33;;;;;;;;;;5055406;28;20052;-74
2023/08/01 12:30:08;;;;;;;1.63;1.40;;;;;;;;;;5054037;28;20051;-74
2023/08/01 12:32:35;;;;;;;1.98;1.30;;;;;;;;;;5052256;28;20025;-74
2023/08/01 12:35:01;;;;;;;1.42;1.33;;;;;;;;;;5055200;28;20047;-74
2023/08/01 12:37:27;;;;;;;2.10;1.40;;;;;;;;;;5054357;28;20071;-74
2023/08/01 12:39:53;;;;;;;1.80;1.33;;;;;;;;;;5063432;28;20037;-74
2023/08/01 12:42:19;;;;;;;3.10;1.30;;;;;;;;;;5051529;28;20055;-74
2023/08/01 12:44:45;;;;;;;1.55;1.42;;;;;;;;;;5053490;28;20059;-74
2023/08/01 12:47:11;;;;;;;1.63;1.50;;;;;;;;;;5055569;28;20033;-74
2023/08/01 12:49:38;;;;;;;2.30;1.55;;;;;;;;;;5053435;28;20024;-75
2023/08/01 12:52:04;;;;;;;2.58;1.55;;;;;;;;;;5052247;28;20059;-73
2023/08/01 12:54:30;;;;;;;1.73;1.30;;;;;;;;;;5047947;28;20024;-74
2023/08/01 12:56:56;;;;;;;3.08;1.40;;;;;;;;;;5059915;28;20388;-73
2023/08/01 12:59:22;;;;;;;1.48;1.38;;;;;;;;;;5057673;28;20323;-74
2023/08/01 13:01:48;;;;;;;1.45;1.35;;;;;;;;;;5061118;28;20025;-73
2023/08/01 13:04:14;;;;;;;2.80;1.50;;;;;;;;;;5055652;28;20025;-73
2023/08/01 13:06:41;;;;;;;2.53;1.38;;;;;;;;;;5066105;28;20029;-73
2023/08/01 13:09:07;;;;;;;1.73;1.63;;;;;;;;;;5062734;28;20051;-72
2023/08/01 13:11:33;;;;;;;2.22;1.65;;;;;;;;;;5058004;28;20037;-73
2023/08/01 13:13:59;;;;;;;1.40;1.30;;;;;;;;;;5064831;28;20028;-72
2023/08/01 13:16:25;;;;;;;1.30;1.20;;;;;;;;;;5063642;28;20035;-72
2023/08/01 13:18:51;;;;;;;1.77;1.40;;;;;;;;;;5058481;28;20414;-74
2023/08/01 13:21:17;;;;;;;1.42;1.33;;;;;;;;;;5054648;28;20037;-73
2023/08/01 13:23:43;;;;;;;1.92;1.50;;;;;;;;;;5062515;28;20427;-74
2023/08/01 13:26:09;;;;;;;2.15;1.30;;;;;;;;;;5052635;28;20528;-73
2023/08/01 13:28:36;;;;;;;1.60;1.27;;;;;;;;;;5057631;28;20400;-73
2023/08/01 13:31:02;;;;;;;2.53;1.42;;;;;;;;;;5057283;28;20543;-73
2023/08/01 13:33:28;;;;;;;1.65;1.55;;;;;;;;;;5063328;28;20032;-69
2023/08/01 13:35:54;;;;;;;1.40;1.30;;;;;;;;;;5056354;28;20086;-74
2023/08/01 13:38:20;;;;;;;1.80;1.40;;;;;;;;;;5066053;28;20027;-73
2023/08/01 13:40:47;;;;;;;1.38;1.27;;;;;;;;;;5058296;28;20434;-73
2023/08/01 13:43:13;;;;;;;2.38;1.52;;;;;;;;;;5057830;28;20025;-73
2023/08/01 13:45:39;;;;;;;2.17;1.98;;;;;;;;;;5078069;28;20020;-73
2023/08/01 13:48:05;;;;;;;1.48;1.38;;;;;;;;;;5063027;28;20052;-73
2023/08/01 13:50:31;;;;;;;1.45;1.08;;;;;;;;;;5064274;28;20056;-74
2023/08/01 13:52:57;;;;;;;1.63;1.52;;;;;;;;;;5065409;28;20017;-73
2023/08/01 13:55:23;;;;;;;1.88;1.50;;;;;;;;;;5075724;28;20098;-73
2023/08/01 13:57:49;;;;;;;1.20;1.20;;;;;;;;;;5077934;28;20028;-73
2023/08/01 14:00:15;;;;;;;1.35;1.20;;;;;;;;;;5071191;28;20024;-73
2023/08/01 14:02:42;;;;;;;2.65;1.50;;;;;;;;;;5062849;28;20131;-73
2023/08/01 14:05:08;;;;;;;1.38;1.25;;;;;;;;;;5056939;28;20036;-73
2023/08/01 14:07:37;;;;;;;2.53;1.40;;;;;;;;;;5077471;28;20025;-73
2023/08/01 14:10:04;;;;;;;1.48;1.38;;;;;;;;;;5070672;28;20028;-73
2023/08/01 14:12:30;;;;;;;1.98;1.13;;;;;;;;;;5068101;28;20017;-73
2023/08/01 14:14:56;;;;;;;1.23;1.20;;;;;;;;;;5067462;28;20367;-73
2023/08/01 14:17:23;;;;;;;1.05;1.05;;;;;;;;;;5070630;28;20369;-73
2023/08/01 14:19:49;;;;;;;1.02;1.02;;;;;;;;;;5084390;28;20028;-72
2023/08/01 14:22:16;;;;;;;1.48;1.38;;;;;;;;;;5066093;28;20029;-72
2023/08/01 14:24:42;;;;;;;1.10;1.10;;;;;;;;;;5067081;28;20149;-72
2023/08/01 14:27:09;;;;;;;2.00;1.85;;;;;;;;;;5055126;28;20355;-71
2023/08/01 14:29:35;;;;;;;1.08;1.08;;;;;;;;;;5061706;28;20070;-73
2023/08/01 14:32:01;;;;;;;1.08;1.08;;;;;;;;;;5058108;28;20021;-72
2023/08/01 14:34:27;;;;;;;1.70;1.13;;;;;;;;;;5067325;28;20435;-72
2023/08/01 14:36:53;;;;;;;1.73;1.20;;;;;;;;;;5065540;28;20040;-72